createdAt,value
2022-12-31T00:01:46.552Z,15.70
2022-12-31T00:05:33.944Z,20.57
2022-12-31T00:09:16.028Z,21.00
2022-12-31T00:12:58.213Z,19.20
2022-12-31T00:16:41.964Z,13.37
2022-12-31T00:20:24.009Z,11.87
2022-12-31T00:24:07.638Z,11.27
2022-12-31T00:27:49.683Z,11.40
2022-12-31T00:31:39.515Z,15.47
2022-12-31T00:35:21.517Z,18.87
2022-12-31T00:39:05.616Z,24.23
2022-12-31T00:42:48.896Z,14.80
2022-12-31T00:46:32.260Z,15.63
2022-12-31T00:50:15.249Z,14.40
2022-12-31T00:53:58.347Z,11.73
2022-12-31T00:57:40.380Z,21.00
2022-12-31T01:01:30.186Z,18.10
2022-12-31T01:05:14.620Z,13.67
2022-12-31T01:08:57.213Z,10.57
2022-12-31T01:12:41.267Z,10.63
2022-12-31T01:16:40.732Z,17.10
2022-12-31T01:20:23.034Z,9.43
2022-12-31T01:24:13.488Z,13.70
2022-12-31T01:27:55.642Z,7.93
2022-12-31T01:31:40.399Z,12.13
2022-12-31T01:35:22.692Z,10.30
2022-12-31T01:39:07.013Z,11.17
2022-12-31T01:42:58.904Z,8.23
2022-12-31T01:47:01.415Z,8.40
2022-12-31T01:50:48.453Z,4.97
2022-12-31T01:54:34.426Z,6.50
2022-12-31T01:58:34.750Z,7.05
2022-12-31T02:02:17.408Z,4.37
2022-12-31T02:06:13.498Z,5.50
2022-12-31T02:09:55.945Z,3.47
2022-12-31T02:13:38.124Z,3.33
2022-12-31T02:17:37.386Z,1.73
2022-12-31T02:21:42.934Z,4.07
2022-12-31T02:26:09.985Z,4.83
2022-12-31T02:30:04.417Z,2.55
2022-12-31T02:34:02.239Z,2.37
2022-12-31T02:37:48.312Z,2.23
2022-12-31T02:41:48.743Z,3.17
2022-12-31T02:45:40.228Z,4.70
2022-12-31T02:49:42.434Z,3.70
2022-12-31T02:54:00.532Z,4.13
2022-12-31T02:57:51.643Z,2.40
2022-12-31T03:02:00.534Z,2.33
2022-12-31T03:05:47.888Z,5.27
2022-12-31T03:09:30.587Z,5.00
2022-12-31T03:13:13.975Z,3.00
2022-12-31T03:16:58.238Z,3.10
2022-12-31T03:21:03.400Z,3.50
2022-12-31T03:25:04.100Z,2.60
2022-12-31T03:28:48.372Z,2.17
2022-12-31T03:32:30.371Z,4.27
2022-12-31T03:36:15.214Z,2.53
2022-12-31T03:39:57.477Z,5.13
2022-12-31T03:43:39.739Z,3.17
2022-12-31T03:47:22.789Z,6.13
2022-12-31T03:51:05.109Z,7.07
2022-12-31T03:54:48.508Z,5.33
2022-12-31T03:58:30.499Z,15.97
2022-12-31T04:02:13.189Z,15.37
2022-12-31T04:05:56.300Z,14.97
2022-12-31T04:09:38.791Z,21.30
2022-12-31T04:13:20.812Z,30.87
2022-12-31T04:17:02.934Z,21.93
2022-12-31T04:20:44.906Z,14.90
2022-12-31T04:24:33.152Z,15.60
2022-12-31T04:28:16.331Z,12.90
2022-12-31T04:31:58.551Z,16.37
2022-12-31T04:35:40.599Z,17.53
2022-12-31T04:39:23.166Z,15.17
2022-12-31T04:43:05.100Z,21.90
2022-12-31T04:46:47.282Z,18.43
2022-12-31T04:50:29.286Z,21.57
2022-12-31T04:54:11.419Z,16.57
2022-12-31T04:57:53.403Z,25.13
2022-12-31T05:01:36.947Z,21.37
2022-12-31T05:05:19.003Z,20.37
2022-12-31T05:09:01.687Z,22.30
2022-12-31T05:12:43.924Z,23.50
2022-12-31T05:16:26.222Z,21.53
2022-12-31T05:20:10.217Z,30.47
2022-12-31T05:23:53.044Z,30.70
2022-12-31T05:27:35.844Z,30.57
2022-12-31T05:31:17.893Z,24.53
2022-12-31T05:35:01.301Z,21.90
2022-12-31T05:38:43.313Z,39.53
2022-12-31T05:42:27.460Z,32.57
2022-12-31T05:46:09.671Z,26.40
2022-12-31T05:49:52.790Z,31.80
2022-12-31T05:53:34.829Z,30.10
2022-12-31T05:57:16.939Z,36.37
2022-12-31T06:00:59.437Z,30.00
2022-12-31T06:04:41.706Z,33.63
2022-12-31T06:08:24.166Z,34.50
2022-12-31T06:12:14.042Z,42.40
2022-12-31T06:15:56.083Z,34.10
2022-12-31T06:19:38.289Z,34.03
2022-12-31T06:23:24.351Z,32.47
2022-12-31T06:27:06.504Z,35.80
2022-12-31T06:30:49.169Z,35.70
2022-12-31T06:34:31.246Z,39.13
2022-12-31T06:38:13.368Z,32.97
2022-12-31T06:41:55.607Z,23.40
2022-12-31T06:45:39.902Z,35.37
2022-12-31T06:49:23.276Z,29.30
2022-12-31T06:53:05.649Z,30.97
2022-12-31T06:56:49.187Z,29.63
2022-12-31T07:01:14.455Z,43.00
2022-12-31T07:05:12.421Z,23.50
2022-12-31T07:09:23.007Z,16.07
2022-12-31T07:13:36.133Z,10.43
2022-12-31T07:17:30.384Z,8.70
2022-12-31T07:21:18.832Z,8.13
2022-12-31T07:25:01.575Z,9.27
2022-12-31T07:29:12.704Z,11.80
2022-12-31T07:33:13.312Z,19.93
2022-12-31T07:37:32.331Z,16.80
2022-12-31T07:41:30.399Z,23.03
2022-12-31T07:45:26.686Z,26.60
2022-12-31T07:49:13.661Z,33.75
2022-12-31T07:52:56.316Z,38.10
2022-12-31T07:56:38.366Z,38.43
2022-12-31T08:00:20.964Z,39.23
2022-12-31T08:04:19.418Z,42.20
2022-12-31T08:08:07.663Z,41.53
2022-12-31T08:11:57.971Z,47.30
2022-12-31T08:15:42.423Z,41.07
2022-12-31T08:19:31.237Z,52.97
2022-12-31T08:23:34.236Z,47.10
2022-12-31T08:27:33.562Z,44.37
2022-12-31T08:31:23.573Z,29.47
2022-12-31T08:35:14.863Z,44.37
2022-12-31T08:39:02.832Z,50.57
2022-12-31T08:43:13.126Z,46.57
2022-12-31T08:47:35.445Z,37.47
2022-12-31T08:51:23.462Z,41.27
2022-12-31T08:55:06.470Z,34.83
2022-12-31T08:59:10.321Z,26.00
2022-12-31T09:03:03.027Z,39.93
2022-12-31T09:06:55.832Z,43.27
2022-12-31T09:10:54.459Z,31.80
2022-12-31T09:14:55.343Z,30.47
2022-12-31T09:18:41.371Z,41.83
2022-12-31T09:22:23.674Z,32.08
2022-12-31T09:26:11.841Z,29.57
2022-12-31T09:30:07.452Z,38.13
2022-12-31T09:33:52.081Z,33.70
2022-12-31T09:37:51.710Z,26.27
2022-12-31T09:41:36.605Z,26.93
2022-12-31T09:45:56.254Z,23.37
2022-12-31T09:50:28.545Z,23.10
2022-12-31T09:54:38.011Z,17.90
2022-12-31T09:58:44.967Z,20.87
2022-12-31T10:06:29.742Z,23.67
2022-12-31T10:10:34.709Z,18.60
2022-12-31T10:14:47.323Z,19.77
2022-12-31T10:18:30.447Z,29.43
2022-12-31T10:22:25.535Z,19.37
2022-12-31T10:26:37.802Z,19.53
2022-12-31T10:30:24.488Z,16.40
2022-12-31T10:34:40.765Z,18.73
2022-12-31T10:38:38.411Z,22.93
2022-12-31T10:43:11.141Z,22.70
2022-12-31T10:47:29.919Z,18.30
2022-12-31T10:51:51.676Z,18.10
2022-12-31T10:55:57.649Z,24.23
2022-12-31T10:59:49.581Z,27.33
2022-12-31T11:04:09.559Z,18.73
2022-12-31T11:08:12.893Z,25.50
2022-12-31T11:12:29.166Z,27.57
2022-12-31T11:16:18.583Z,25.80
2022-12-31T11:20:34.332Z,24.43
2022-12-31T11:24:18.664Z,29.10
2022-12-31T11:28:29.401Z,20.60
2022-12-31T11:32:25.363Z,21.73
2022-12-31T11:36:18.641Z,18.23
2022-12-31T11:40:31.814Z,16.87
2022-12-31T11:44:49.598Z,12.83
2022-12-31T11:48:40.785Z,11.97
2022-12-31T11:52:44.675Z,9.73
2022-12-31T11:56:35.763Z,13.53
2022-12-31T12:00:22.445Z,8.33
2022-12-31T12:04:05.473Z,7.00
2022-12-31T12:07:52.474Z,5.33
2022-12-31T12:11:41.513Z,5.67
2022-12-31T12:15:48.386Z,7.27
2022-12-31T12:24:12.435Z,4.60
2022-12-31T12:28:44.315Z,2.73
2022-12-31T12:32:43.159Z,5.73
2022-12-31T12:36:30.980Z,5.00
2022-12-31T12:40:33.481Z,4.93
2022-12-31T12:59:09.935Z,4.57
2022-12-31T13:04:31.842Z,6.70
2022-12-31T13:08:38.830Z,5.47
2022-12-31T13:22:38.092Z,5.13
2022-12-31T13:26:30.591Z,3.77
2022-12-31T13:30:38.607Z,3.03
2022-12-31T13:34:26.502Z,1.97
2022-12-31T13:38:29.807Z,3.60
2022-12-31T13:43:03.312Z,1.97
2022-12-31T13:46:56.208Z,3.63
2022-12-31T13:59:43.384Z,7.17
2022-12-31T14:04:10.558Z,7.43
2022-12-31T14:08:02.786Z,7.77
2022-12-31T14:12:39.266Z,9.23
2022-12-31T14:16:51.102Z,13.73
2022-12-31T14:21:31.027Z,12.27
2022-12-31T14:30:46.864Z,11.73
2022-12-31T14:35:42.467Z,13.73
2022-12-31T14:53:16.831Z,19.40
2022-12-31T15:06:48.369Z,21.23
2022-12-31T15:11:27.212Z,23.90
2022-12-31T15:34:42.899Z,28.00
2022-12-31T15:38:38.079Z,21.03
2022-12-31T15:43:12.630Z,14.53
2022-12-31T15:47:29.268Z,17.53
2022-12-31T15:51:26.069Z,23.65
2022-12-31T15:55:34.457Z,14.00
2022-12-31T15:59:21.204Z,12.30
2022-12-31T16:03:03.915Z,15.70
2022-12-31T16:06:51.251Z,16.23
2022-12-31T16:10:36.485Z,13.03
2022-12-31T16:14:35.191Z,22.30
2022-12-31T16:18:22.785Z,18.50
2022-12-31T16:22:27.559Z,25.67
2022-12-31T16:26:12.364Z,26.13
2022-12-31T16:30:02.724Z,20.37
2022-12-31T16:33:47.959Z,17.73
2022-12-31T16:37:34.804Z,21.50
2022-12-31T16:41:20.102Z,20.30
2022-12-31T16:45:30.274Z,32.10
2022-12-31T16:49:23.023Z,23.00
2022-12-31T16:53:13.805Z,26.83
2022-12-31T17:01:02.148Z,17.53
2022-12-31T17:04:55.578Z,19.13
2022-12-31T17:08:59.494Z,15.70
2022-12-31T17:13:25.451Z,13.23
2022-12-31T17:17:42.644Z,10.10
2022-12-31T17:21:29.071Z,7.17
2022-12-31T17:25:34.094Z,5.83
2022-12-31T17:29:26.997Z,7.27
2022-12-31T17:37:28.261Z,6.13
2022-12-31T17:41:30.545Z,3.87
2022-12-31T17:45:22.880Z,5.03
2022-12-31T17:49:05.078Z,4.63
2022-12-31T17:56:49.398Z,3.70
2022-12-31T18:00:33.979Z,3.50
2022-12-31T18:04:18.557Z,4.53
2022-12-31T18:08:03.005Z,4.27
2022-12-31T18:11:52.541Z,4.53
2022-12-31T18:15:49.913Z,3.57
2022-12-31T18:27:38.920Z,5.10
2022-12-31T18:31:32.053Z,3.85
2022-12-31T18:35:49.056Z,4.77
2022-12-31T18:39:32.531Z,4.07
2022-12-31T18:43:20.153Z,3.73
2022-12-31T18:47:16.167Z,5.93
2022-12-31T18:50:59.505Z,4.53
2022-12-31T18:54:42.484Z,4.97
2022-12-31T18:58:26.121Z,6.83
2022-12-31T19:02:22.564Z,6.43
2022-12-31T19:06:08.141Z,7.00
2022-12-31T19:09:56.427Z,2.80
2022-12-31T19:13:41.992Z,3.53
2022-12-31T19:17:33.159Z,10.77
2022-12-31T19:21:21.950Z,3.20
2022-12-31T19:25:06.013Z,3.23
2022-12-31T19:28:49.284Z,4.30
2022-12-31T19:32:31.773Z,4.80
2022-12-31T19:36:19.029Z,5.07
2022-12-31T19:40:02.261Z,6.03
2022-12-31T19:43:44.411Z,4.07
2022-12-31T19:47:28.919Z,6.30
2022-12-31T19:51:17.995Z,5.53
2022-12-31T19:55:00.373Z,6.13
2022-12-31T19:58:43.798Z,8.87
2022-12-31T20:02:25.872Z,3.47
2022-12-31T20:06:11.180Z,3.30
2022-12-31T20:09:53.187Z,6.73
2022-12-31T20:13:37.931Z,6.90
2022-12-31T20:17:21.499Z,6.87
2022-12-31T20:21:06.250Z,6.90
2022-12-31T20:24:48.413Z,4.73
2022-12-31T20:28:30.711Z,4.67
2022-12-31T20:32:13.085Z,8.87
2022-12-31T20:35:57.973Z,8.23
2022-12-31T20:39:40.032Z,11.57
2022-12-31T20:43:22.204Z,10.47
2022-12-31T20:47:04.276Z,7.23
2022-12-31T20:50:55.262Z,7.43
2022-12-31T20:54:38.625Z,7.63
2022-12-31T20:58:21.326Z,13.10
2022-12-31T21:06:07.103Z,19.83
2022-12-31T21:09:49.330Z,9.30
2022-12-31T21:13:33.363Z,11.90
2022-12-31T21:17:16.563Z,8.50
2022-12-31T21:21:00.893Z,13.90
2022-12-31T21:24:44.707Z,11.17
2022-12-31T21:28:26.686Z,9.57
2022-12-31T21:32:09.080Z,11.47
2022-12-31T21:35:53.851Z,9.17
2022-12-31T21:39:36.293Z,10.73
2022-12-31T21:43:19.042Z,14.90
2022-12-31T21:47:39.770Z,14.07
2022-12-31T21:51:23.655Z,25.27
2022-12-31T21:55:25.238Z,19.83
2022-12-31T21:59:28.367Z,11.03
2022-12-31T22:03:34.997Z,15.17
2022-12-31T22:07:25.861Z,13.95
2022-12-31T22:11:08.878Z,13.63
2022-12-31T22:15:15.120Z,11.20
2022-12-31T22:18:57.110Z,8.57
2022-12-31T22:22:40.319Z,10.30
2022-12-31T22:26:25.198Z,11.77
2022-12-31T22:30:11.033Z,7.77
2022-12-31T22:33:54.298Z,7.07
2022-12-31T22:37:56.251Z,8.20
2022-12-31T22:41:40.757Z,18.03
2022-12-31T22:45:23.685Z,11.67
2022-12-31T22:49:05.982Z,5.80
2022-12-31T22:52:48.122Z,8.07
2022-12-31T22:56:32.504Z,6.80
2022-12-31T23:00:14.927Z,7.17
2022-12-31T23:03:57.348Z,9.77
2022-12-31T23:07:39.642Z,5.83
2022-12-31T23:11:21.700Z,9.67
2022-12-31T23:15:24.309Z,10.33
2022-12-31T23:19:26.092Z,12.47
2022-12-31T23:23:16.473Z,7.63
2022-12-31T23:26:59.025Z,12.83
2022-12-31T23:30:43.952Z,7.57
2022-12-31T23:34:26.005Z,7.03
2022-12-31T23:38:08.454Z,15.27
2022-12-31T23:41:50.700Z,6.10
2022-12-31T23:45:33.916Z,9.77
2022-12-31T23:49:16.253Z,10.60
2022-12-31T23:52:58.431Z,12.67
2022-12-31T23:56:40.792Z,13.33
